Portada
METAR-TAF:

METAR-TAF

Aeropuertos :

Paraguaná, Venezuela

Aeropuerto Internacional Josefa Camejo

latitud: 11-47N, longitud: 070-09W, altitud: 23 m

METAR: falta

Hora: 19:37 (23:37 UTC)

Pronóstico

El informe se hizo hace 7 horas y 37 minutos, a las 16:00 UTC
Pronóstico válido del 20 a las 18 UTC al 21 a las 18 UTC
Viento 15 kt del este
Visibilidad 10 km o más
Escasas nubes a una altura de 2000 ft
Nubes dispersas a una altura de 8000 ft
Evolucionando progresivamente
del 20 a las 18 UTC al 20 a las 22 UTC
Viento 10 kt del sureste
Nubes dispersas a una altura de 1600 ft

TAF: SVJC 201600Z 2018/2118 09015KT 9999 FEW020 SCT080 TX32/19Z TN24/09Z BECMG 2018/2022 14010KT SCT016

Observaciones y pronósticos meteorológicos de más de 4000 aeropuertos (mensajes METAR y TAF).

Los puntos amarillos y rojos representan las estaciones disponibles.

Ponga el ratón en el punto deseado para ver el nombre de la estación.

Haga clic para ver las observaciones y los pronósticos meteorológicos.

Para cambiar el mapa : haga clic en los botones verdes con una cruz de color negro para hacer un zoom, en el botón verde con un guión para alejar o en las flechas verdes para mapas adyacentes.


METAR-TAF: